createdAt,value
2022-09-20T00:01:16.773Z,50.03
2022-09-20T00:03:46.190Z,50.14
2022-09-20T00:06:18.890Z,50.81
2022-09-20T00:08:46.909Z,50.64
2022-09-20T00:11:18.751Z,50.66
2022-09-20T00:13:48.271Z,50.61
2022-09-20T00:16:21.314Z,50.41
2022-09-20T00:18:53.390Z,50.58
2022-09-20T00:21:23.232Z,50.74
2022-09-20T00:23:50.230Z,51.01
2022-09-20T00:26:17.810Z,51.24
2022-09-20T00:28:47.273Z,51.13
2022-09-20T00:31:15.443Z,51.41
2022-09-20T00:34:01.570Z,51.46
2022-09-20T00:36:29.151Z,51.17
2022-09-20T00:39:00.970Z,51.05
2022-09-20T00:41:30.670Z,51.39
2022-09-20T00:43:58.271Z,51.07
2022-09-20T00:46:38.030Z,50.97
2022-09-20T00:49:25.877Z,50.40
2022-09-20T00:51:58.031Z,50.91
2022-09-20T00:54:26.951Z,50.73
2022-09-20T00:56:54.070Z,50.91
2022-09-20T00:59:31.410Z,50.56
2022-09-20T01:02:09.893Z,50.21
2022-09-20T01:04:39.811Z,49.89
2022-09-20T01:07:09.480Z,49.62
2022-09-20T01:09:36.631Z,49.89
2022-09-20T01:12:09.630Z,49.53
2022-09-20T01:14:36.770Z,49.42
2022-09-20T01:17:06.290Z,49.16
2022-09-20T01:19:54.630Z,49.08
2022-09-20T01:22:26.965Z,49.32
2022-09-20T01:25:27.509Z,49.32
2022-09-20T01:27:55.169Z,48.71
2022-09-20T01:30:32.390Z,48.96
2022-09-20T01:33:05.230Z,49.23
2022-09-20T01:35:35.677Z,49.41
2022-09-20T01:38:31.670Z,49.64
2022-09-20T01:41:23.479Z,50.21
2022-09-20T01:44:04.030Z,50.76
2022-09-20T01:46:33.613Z,50.61
2022-09-20T01:49:19.170Z,50.56
2022-09-20T01:52:19.771Z,50.82
2022-09-20T01:55:20.210Z,51.02
2022-09-20T01:58:10.394Z,50.93
2022-09-20T02:00:56.215Z,50.93
2022-09-20T02:03:50.871Z,51.07
2022-09-20T02:06:41.310Z,51.24
2022-09-20T02:09:30.050Z,51.67
2022-09-20T02:12:15.918Z,52.11
2022-09-20T02:14:55.990Z,51.89
2022-09-20T02:18:00.230Z,51.95
2022-09-20T02:20:45.718Z,51.90
2022-09-20T02:23:27.171Z,52.48
2022-09-20T02:26:35.872Z,52.83
2022-09-20T02:29:18.151Z,52.74
2022-09-20T02:32:06.384Z,52.79
2022-09-20T02:34:44.630Z,52.90
2022-09-20T02:37:11.569Z,53.17
2022-09-20T02:39:59.632Z,53.07
2022-09-20T02:42:59.710Z,53.60
2022-09-20T02:45:38.562Z,54.04
2022-09-20T02:48:06.590Z,53.52
2022-09-20T02:50:41.431Z,53.90
2022-09-20T02:53:43.527Z,53.79
2022-09-20T02:56:30.710Z,53.28
2022-09-20T02:59:09.710Z,53.51
2022-09-20T03:01:54.963Z,53.55
2022-09-20T03:04:43.690Z,52.94
2022-09-20T03:07:23.990Z,53.48
2022-09-20T03:10:13.032Z,52.87
2022-09-20T03:12:57.730Z,52.64
2022-09-20T03:15:27.770Z,52.79
2022-09-20T03:18:06.859Z,53.01
2022-09-20T03:21:03.849Z,52.93
2022-09-20T03:23:40.631Z,53.14
2022-09-20T03:26:17.310Z,52.80
2022-09-20T03:29:16.310Z,53.53
2022-09-20T03:31:55.445Z,53.58
2022-09-20T03:34:34.631Z,53.08
2022-09-20T03:37:30.956Z,53.64
2022-09-20T03:40:19.823Z,53.65
2022-09-20T03:42:49.938Z,53.39
2022-09-20T03:45:44.938Z,54.00
2022-09-20T03:48:15.154Z,53.65
2022-09-20T03:51:01.612Z,54.54
2022-09-20T03:53:40.990Z,55.24
2022-09-20T03:56:22.990Z,55.25
2022-09-20T03:58:55.718Z,54.95
2022-09-20T04:01:45.450Z,55.04
2022-09-20T04:04:31.553Z,55.00
2022-09-20T04:07:28.710Z,54.83
2022-09-20T04:10:49.531Z,54.58
2022-09-20T04:13:48.071Z,54.90
2022-09-20T04:16:41.775Z,54.65
2022-09-20T04:19:15.320Z,54.73
2022-09-20T04:21:58.775Z,54.57
2022-09-20T04:24:50.581Z,54.45
2022-09-20T04:27:29.322Z,54.09
2022-09-20T04:30:02.397Z,54.33
2022-09-20T04:32:41.959Z,53.86
2022-09-20T04:35:49.256Z,53.94
2022-09-20T04:38:19.934Z,54.36
2022-09-20T04:40:49.599Z,54.21
2022-09-20T04:43:35.585Z,54.67
2022-09-20T04:46:35.863Z,54.54
2022-09-20T04:49:27.035Z,54.05
2022-09-20T04:52:04.376Z,54.00
2022-09-20T04:54:55.748Z,53.96
2022-09-20T04:57:47.216Z,54.04
2022-09-20T05:00:19.084Z,53.84
2022-09-20T05:03:13.518Z,54.05
2022-09-20T05:05:46.535Z,54.07
2022-09-20T05:08:25.436Z,54.11
2022-09-20T05:11:42.598Z,53.73
2022-09-20T05:14:22.981Z,53.77
2022-09-20T05:17:08.217Z,53.98
2022-09-20T05:20:02.816Z,53.67
2022-09-20T05:23:00.296Z,53.70
2022-09-20T05:25:46.134Z,53.54
2022-09-20T05:28:25.796Z,53.69
2022-09-20T05:31:03.436Z,53.64
2022-09-20T05:33:45.678Z,53.90
2022-09-20T05:36:18.495Z,54.13
2022-09-20T05:38:58.071Z,53.61
2022-09-20T05:41:33.515Z,53.39
2022-09-20T05:44:15.656Z,53.57
2022-09-20T05:46:50.815Z,53.41
2022-09-20T05:49:36.875Z,52.89
2022-09-20T05:52:31.174Z,52.78
2022-09-20T05:55:22.096Z,52.59
2022-09-20T05:58:04.315Z,52.51
2022-09-20T06:00:56.096Z,52.75
2022-09-20T06:03:48.796Z,52.83
2022-09-20T06:06:33.856Z,52.42
2022-09-20T06:09:12.896Z,52.40
2022-09-20T06:12:05.524Z,52.30
2022-09-20T06:14:48.037Z,51.84
2022-09-20T06:17:59.615Z,51.84
2022-09-20T06:20:30.036Z,51.50
2022-09-20T06:23:00.996Z,51.45
2022-09-20T06:25:31.415Z,51.40
2022-09-20T06:28:33.544Z,51.11
2022-09-20T06:31:00.704Z,50.85
2022-09-20T06:33:29.195Z,50.38
2022-09-20T06:35:59.075Z,49.97
2022-09-20T06:38:58.077Z,49.79
2022-09-20T06:41:28.834Z,49.29
2022-09-20T06:44:05.760Z,49.35
2022-09-20T06:46:35.878Z,49.33
2022-09-20T06:49:08.495Z,49.45
2022-09-20T06:51:38.379Z,49.15
2022-09-20T06:54:08.356Z,48.90
2022-09-20T06:56:36.972Z,48.12
2022-09-20T06:59:08.853Z,47.60
2022-09-20T07:01:36.366Z,47.80
2022-09-20T07:04:04.556Z,47.22
2022-09-20T07:06:31.594Z,46.70
2022-09-20T07:08:58.716Z,46.43
2022-09-20T07:11:26.497Z,45.95
2022-09-20T07:13:55.795Z,46.01
2022-09-20T07:16:23.107Z,45.85
2022-09-20T07:18:52.516Z,46.07
2022-09-20T07:21:21.103Z,45.99
2022-09-20T07:23:51.503Z,46.29
2022-09-20T07:26:23.956Z,46.46
2022-09-20T07:28:51.415Z,46.78
2022-09-20T07:31:19.997Z,45.82
2022-09-20T07:33:47.579Z,45.82
2022-09-20T07:36:14.736Z,45.38
2022-09-20T07:38:43.264Z,45.36
2022-09-20T07:41:10.975Z,44.96
2022-09-20T07:43:38.023Z,44.76
2022-09-20T07:46:05.265Z,44.54
2022-09-20T07:48:34.716Z,44.56
2022-09-20T07:51:10.177Z,44.79
2022-09-20T07:53:38.056Z,44.90
2022-09-20T07:56:14.375Z,44.53
2022-09-20T07:58:42.576Z,45.07
2022-09-20T08:01:12.721Z,44.73
2022-09-20T08:03:40.716Z,44.83
2022-09-20T08:06:10.696Z,44.90
2022-09-20T08:08:40.867Z,44.52
2022-09-20T08:11:14.603Z,44.90
2022-09-20T08:16:43.082Z,44.27
2022-09-20T08:19:18.980Z,44.52
2022-09-20T08:21:46.234Z,43.82
2022-09-20T08:24:13.697Z,43.53
2022-09-20T08:26:40.702Z,42.77
2022-09-20T08:29:07.987Z,43.54
2022-09-20T08:31:42.578Z,42.62
2022-09-20T08:34:12.251Z,43.06
2022-09-20T08:36:41.816Z,41.99
2022-09-20T08:42:20.255Z,41.66
2022-09-20T08:45:00.538Z,41.19
2022-09-20T08:47:54.180Z,40.01
2022-09-20T08:50:23.656Z,40.27
2022-09-20T08:53:00.078Z,40.67
2022-09-20T08:55:36.435Z,40.65
2022-09-20T08:58:08.511Z,39.84
2022-09-20T09:00:37.981Z,40.23
2022-09-20T09:03:17.436Z,39.77
2022-09-20T09:05:48.554Z,38.92
2022-09-20T09:08:19.335Z,38.90
2022-09-20T09:10:54.367Z,38.43
2022-09-20T09:13:53.989Z,37.96
2022-09-20T09:16:30.362Z,37.78
2022-09-20T09:19:33.293Z,37.13
2022-09-20T09:22:05.979Z,35.56
2022-09-20T09:24:33.214Z,35.60
2022-09-20T09:27:19.555Z,34.21
2022-09-20T09:29:54.777Z,34.25
2022-09-20T09:32:31.465Z,33.74
2022-09-20T09:35:31.294Z,34.28
2022-09-20T09:38:01.043Z,34.01
2022-09-20T09:40:32.535Z,35.16
2022-09-20T09:43:01.821Z,34.98
2022-09-20T09:45:38.960Z,34.99
2022-09-20T09:48:32.317Z,35.28
2022-09-20T09:51:23.775Z,34.62
2022-09-20T09:53:51.695Z,33.98
2022-09-20T09:56:36.935Z,33.72
2022-09-20T09:59:30.535Z,33.49
2022-09-20T10:02:13.369Z,32.93
2022-09-20T10:05:11.415Z,32.71
2022-09-20T10:07:56.215Z,32.70
2022-09-20T10:10:55.434Z,32.49
2022-09-20T10:13:46.777Z,32.90
2022-09-20T10:16:33.274Z,31.95
2022-09-20T10:19:25.040Z,31.82
2022-09-20T10:22:16.335Z,32.04
2022-09-20T10:24:51.553Z,31.16
2022-09-20T10:27:49.398Z,29.89
2022-09-20T10:30:31.724Z,30.07
2022-09-20T10:33:18.537Z,28.97
2022-09-20T10:36:18.855Z,29.74
2022-09-20T10:39:06.177Z,30.42
2022-09-20T10:42:33.255Z,29.96
2022-09-20T10:45:53.379Z,27.97
2022-09-20T10:48:22.876Z,27.06
2022-09-20T10:51:15.894Z,27.16
2022-09-20T10:54:07.500Z,26.95
2022-09-20T10:56:39.861Z,26.88
2022-09-20T10:59:38.216Z,26.51
2022-09-20T11:14:04.219Z,30.00
2022-09-20T11:16:42.068Z,30.93
2022-09-20T11:19:18.758Z,31.32
2022-09-20T11:21:52.896Z,31.39
2022-09-20T11:24:29.163Z,32.18
2022-09-20T11:27:18.937Z,31.96
2022-09-20T11:30:04.116Z,32.59
2022-09-20T11:32:59.055Z,32.84
2022-09-20T11:35:37.795Z,32.82
2022-09-20T11:38:18.195Z,33.06
2022-09-20T11:40:58.305Z,33.39
2022-09-20T11:43:29.258Z,33.87
2022-09-20T11:46:00.952Z,33.23
2022-09-20T11:48:30.323Z,33.72
2022-09-20T11:51:24.182Z,33.49
2022-09-20T11:54:00.138Z,34.09
2022-09-20T11:56:31.256Z,33.90
2022-09-20T11:59:01.816Z,34.08
2022-09-20T12:01:35.894Z,34.14
2022-09-20T12:04:33.015Z,34.91
2022-09-20T12:07:09.753Z,34.67
2022-09-20T12:09:42.974Z,35.39
2022-09-20T12:12:20.854Z,34.40
2022-09-20T12:14:59.874Z,33.45
2022-09-20T12:17:44.897Z,32.57
2022-09-20T12:20:38.863Z,31.74
2022-09-20T12:23:43.157Z,31.28
2022-09-20T12:26:22.036Z,30.91
2022-09-20T12:29:00.774Z,31.28
2022-09-20T12:31:34.488Z,31.06
2022-09-20T12:34:04.376Z,31.50
2022-09-20T12:36:35.604Z,30.63
2022-09-20T12:39:11.718Z,30.69
2022-09-20T12:41:55.615Z,31.08
2022-09-20T12:44:42.516Z,31.34
2022-09-20T12:47:12.538Z,31.29
2022-09-20T12:50:04.340Z,31.67
2022-09-20T12:52:52.814Z,31.79
2022-09-20T12:55:46.658Z,32.86
2022-09-20T12:58:14.530Z,33.25
2022-09-20T13:00:46.740Z,32.53
2022-09-20T13:03:58.915Z,32.61
2022-09-20T13:06:26.535Z,32.84
2022-09-20T13:09:04.473Z,32.85
2022-09-20T13:11:57.197Z,32.22
2022-09-20T13:14:28.375Z,32.64
2022-09-20T13:17:07.298Z,32.80
2022-09-20T13:19:39.276Z,32.31
2022-09-20T13:22:12.575Z,33.09
2022-09-20T13:24:43.375Z,32.96
2022-09-20T13:27:25.856Z,33.35
2022-09-20T13:29:53.634Z,33.67
2022-09-20T13:32:34.657Z,33.62
2022-09-20T13:35:32.635Z,33.63
2022-09-20T13:38:09.896Z,33.70
2022-09-20T13:40:43.924Z,32.97
2022-09-20T13:43:36.614Z,32.81
2022-09-20T13:46:18.780Z,33.21
2022-09-20T13:48:52.935Z,32.29
2022-09-20T13:51:28.138Z,30.97
2022-09-20T13:54:29.614Z,29.68
2022-09-20T13:57:01.936Z,28.35
2022-09-20T13:59:45.178Z,27.26
2022-09-20T14:02:33.716Z,25.60
2022-09-20T14:05:04.415Z,24.46
2022-09-20T14:07:32.635Z,23.77
2022-09-20T14:10:00.432Z,22.72
2022-09-20T14:12:28.755Z,20.84
2022-09-20T14:14:56.575Z,20.44
2022-09-20T14:17:25.009Z,19.77
2022-09-20T14:19:54.707Z,19.43
2022-09-20T14:22:28.095Z,19.00
2022-09-20T14:25:22.459Z,19.13
2022-09-20T14:28:04.135Z,19.58
2022-09-20T14:30:36.856Z,19.46
2022-09-20T14:33:07.456Z,20.79
2022-09-20T14:35:34.606Z,21.38
2022-09-20T14:38:08.759Z,21.48
2022-09-20T14:40:47.403Z,22.67
2022-09-20T14:43:35.223Z,23.09
2022-09-20T14:46:03.492Z,23.83
2022-09-20T14:48:41.583Z,24.46
2022-09-20T14:51:22.534Z,25.46
2022-09-20T14:54:13.553Z,26.58
2022-09-20T14:56:49.319Z,26.97
2022-09-20T14:59:19.383Z,27.14
2022-09-20T15:01:59.465Z,27.48
2022-09-20T15:04:28.296Z,28.12
2022-09-20T15:06:57.113Z,28.41
2022-09-20T15:09:24.491Z,28.41
2022-09-20T15:12:21.762Z,28.28
2022-09-20T15:14:49.283Z,28.71
2022-09-20T15:17:21.655Z,28.93
2022-09-20T15:19:49.576Z,29.14
2022-09-20T15:22:16.694Z,29.89
2022-09-20T15:24:44.393Z,29.75
2022-09-20T15:27:12.484Z,29.09
2022-09-20T15:29:40.210Z,29.33
2022-09-20T15:32:10.275Z,30.00
2022-09-20T15:34:37.242Z,30.74
2022-09-20T15:37:05.002Z,31.00
2022-09-20T15:39:31.984Z,30.89
2022-09-20T15:41:58.945Z,30.73
2022-09-20T15:44:25.943Z,30.92
2022-09-20T15:46:53.923Z,31.55
2022-09-20T15:49:21.884Z,32.17
2022-09-20T15:51:48.833Z,32.31
2022-09-20T15:54:16.011Z,32.11
2022-09-20T15:56:43.033Z,32.63
2022-09-20T15:59:11.787Z,32.28
2022-09-20T16:01:44.343Z,32.39
2022-09-20T16:04:13.842Z,33.44
2022-09-20T16:06:43.212Z,33.96
2022-09-20T16:09:10.313Z,32.70
2022-09-20T16:11:38.933Z,33.10
2022-09-20T16:14:07.314Z,32.41
2022-09-20T16:16:39.980Z,32.15
2022-09-20T16:19:20.984Z,31.99
2022-09-20T16:21:59.202Z,32.03
2022-09-20T16:24:30.242Z,32.70
2022-09-20T16:26:58.490Z,32.58
2022-09-20T16:29:26.147Z,32.79
2022-09-20T16:31:54.815Z,32.72
2022-09-20T16:34:23.204Z,33.32
2022-09-20T16:36:54.012Z,34.14
2022-09-20T16:39:26.472Z,34.11
2022-09-20T16:41:57.300Z,34.39
2022-09-20T16:44:24.724Z,34.56
2022-09-20T16:46:51.903Z,34.72
2022-09-20T16:49:18.942Z,34.97
2022-09-20T16:51:47.092Z,35.51
2022-09-20T16:54:15.344Z,35.99
2022-09-20T16:56:50.950Z,35.72
2022-09-20T16:59:23.222Z,35.75
2022-09-20T17:01:51.010Z,36.99
2022-09-20T17:04:20.405Z,37.29
2022-09-20T17:06:48.831Z,37.69
2022-09-20T17:09:16.713Z,37.86
2022-09-20T17:11:46.242Z,39.20
2022-09-20T17:14:14.408Z,39.44
2022-09-20T17:16:42.141Z,39.54
2022-09-20T17:19:11.663Z,39.18
2022-09-20T17:21:43.604Z,38.89
2022-09-20T17:24:10.982Z,40.15
2022-09-20T17:26:40.432Z,40.65
2022-09-20T17:29:14.111Z,41.56
2022-09-20T17:31:44.154Z,42.14
2022-09-20T17:34:12.980Z,41.95
2022-09-20T17:36:42.655Z,42.25
2022-09-20T17:39:12.886Z,42.96
2022-09-20T17:41:45.822Z,43.17
2022-09-20T17:44:13.534Z,43.25
2022-09-20T17:46:45.302Z,43.40
2022-09-20T17:49:18.274Z,43.77
2022-09-20T17:51:47.464Z,43.22
2022-09-20T17:54:16.043Z,43.75
2022-09-20T17:56:45.364Z,44.03
2022-09-20T17:59:16.393Z,44.28
2022-09-20T18:01:45.533Z,43.75
2022-09-20T18:04:13.764Z,44.52
2022-09-20T18:06:45.144Z,45.63
2022-09-20T18:09:16.042Z,45.93
2022-09-20T18:11:51.437Z,45.25
2022-09-20T18:14:23.414Z,45.13
2022-09-20T18:16:58.318Z,46.08
2022-09-20T18:19:32.674Z,45.76
2022-09-20T18:22:01.693Z,45.93
2022-09-20T18:24:29.674Z,45.42
2022-09-20T18:26:56.764Z,45.27
2022-09-20T18:29:25.017Z,44.69
2022-09-20T18:31:54.679Z,43.99
2022-09-20T18:34:27.083Z,44.08
2022-09-20T18:36:56.322Z,45.08
2022-09-20T18:39:27.051Z,45.91
2022-09-20T18:41:54.903Z,45.08
2022-09-20T18:44:23.085Z,45.48
2022-09-20T18:46:53.255Z,46.37
2022-09-20T18:49:21.862Z,45.69
2022-09-20T18:51:50.292Z,45.17
2022-09-20T18:54:18.213Z,44.60
2022-09-20T18:56:47.426Z,44.41
2022-09-20T18:59:26.729Z,44.18
2022-09-20T19:02:02.923Z,43.89
2022-09-20T19:04:57.152Z,44.21
2022-09-20T19:07:47.344Z,43.76
2022-09-20T19:10:47.283Z,44.11
2022-09-20T19:13:26.995Z,44.21
2022-09-20T19:16:14.359Z,44.07
2022-09-20T19:18:59.041Z,43.62
2022-09-20T19:21:35.116Z,43.57
2022-09-20T19:24:36.303Z,43.30
2022-09-20T19:27:03.493Z,43.26
2022-09-20T19:29:30.683Z,43.52
2022-09-20T19:31:59.434Z,43.81
2022-09-20T19:34:28.785Z,45.27
2022-09-20T19:37:04.964Z,44.89
2022-09-20T19:39:34.943Z,44.48
2022-09-20T19:42:36.473Z,44.95
2022-09-20T19:45:51.182Z,44.77
2022-09-20T19:48:38.337Z,45.04
2022-09-20T19:51:11.265Z,45.81
2022-09-20T19:53:39.615Z,45.82
2022-09-20T19:56:18.803Z,46.75
2022-09-20T19:58:46.995Z,45.68
2022-09-20T20:01:14.235Z,45.67
2022-09-20T20:03:41.563Z,45.54
2022-09-20T20:06:23.133Z,45.51
2022-09-20T20:09:09.943Z,45.47
2022-09-20T20:11:48.048Z,46.80
2022-09-20T20:14:20.803Z,47.18
2022-09-20T20:17:09.486Z,46.94
2022-09-20T20:20:01.300Z,46.03
2022-09-20T20:22:41.251Z,46.13
2022-09-20T20:25:40.456Z,45.99
2022-09-20T20:28:09.385Z,46.21
2022-09-20T20:30:36.572Z,45.74
2022-09-20T20:33:05.303Z,45.66
2022-09-20T20:35:32.443Z,45.90
2022-09-20T20:37:59.383Z,45.64
2022-09-20T20:40:26.502Z,45.72
2022-09-20T20:43:02.363Z,46.50
2022-09-20T20:45:30.423Z,46.61
2022-09-20T20:47:58.822Z,47.28
2022-09-20T20:50:27.313Z,48.23
2022-09-20T20:52:55.851Z,48.25
2022-09-20T20:55:24.184Z,48.23
2022-09-20T20:57:58.427Z,48.61
2022-09-20T21:00:26.651Z,48.73
2022-09-20T21:03:00.954Z,48.38
2022-09-20T21:05:54.063Z,48.40
2022-09-20T21:08:21.043Z,48.43
2022-09-20T21:10:47.934Z,49.05
2022-09-20T21:13:14.963Z,48.92
2022-09-20T21:15:41.925Z,48.94
2022-09-20T21:18:09.845Z,49.42
2022-09-20T21:20:38.653Z,48.76
2022-09-20T21:23:05.674Z,49.09
2022-09-20T21:25:32.553Z,50.18
2022-09-20T21:27:59.523Z,50.76
2022-09-20T21:30:26.724Z,50.34
2022-09-20T21:32:54.215Z,49.75
2022-09-20T21:35:21.251Z,49.35
2022-09-20T21:37:48.723Z,49.07
2022-09-20T21:40:15.740Z,49.74
2022-09-20T21:42:42.700Z,51.11
2022-09-20T21:45:11.109Z,51.45
2022-09-20T21:47:38.085Z,51.04
2022-09-20T21:50:05.364Z,51.32
2022-09-20T21:52:32.343Z,51.39
2022-09-20T21:54:59.265Z,51.61
2022-09-20T21:57:27.441Z,51.19
2022-09-20T21:59:54.391Z,50.96
2022-09-20T22:02:21.339Z,50.27
2022-09-20T22:04:48.213Z,50.54
2022-09-20T22:07:16.114Z,50.21
2022-09-20T22:09:43.023Z,50.11
2022-09-20T22:12:10.032Z,49.81
2022-09-20T22:14:39.614Z,49.21
2022-09-20T22:17:06.583Z,49.32
2022-09-20T22:19:33.492Z,50.26
2022-09-20T22:22:00.463Z,50.86
2022-09-20T22:24:27.393Z,50.95
2022-09-20T22:26:54.393Z,51.20
2022-09-20T22:29:22.273Z,51.07
2022-09-20T22:31:50.286Z,51.39
2022-09-20T22:34:19.643Z,52.21
2022-09-20T22:36:47.395Z,52.82
2022-09-20T22:39:15.181Z,52.47
2022-09-20T22:41:43.234Z,52.04
2022-09-20T22:44:11.457Z,51.59
2022-09-20T22:46:38.594Z,50.64
2022-09-20T22:49:06.973Z,50.91
2022-09-20T22:51:33.983Z,52.90
2022-09-20T22:54:05.971Z,52.87
2022-09-20T22:56:33.334Z,52.66
2022-09-20T22:59:05.444Z,53.73
2022-09-20T23:01:35.325Z,53.84
2022-09-20T23:04:08.251Z,53.51
2022-09-20T23:06:41.722Z,54.07
2022-09-20T23:09:11.553Z,53.94
2022-09-20T23:11:42.225Z,53.60
2022-09-20T23:14:11.982Z,53.19
2022-09-20T23:16:39.324Z,53.55
2022-09-20T23:19:07.872Z,53.26
2022-09-20T23:21:36.924Z,53.75
2022-09-20T23:24:06.163Z,53.44
2022-09-20T23:26:35.342Z,53.88
2022-09-20T23:29:05.095Z,54.23
2022-09-20T23:31:34.757Z,54.19
2022-09-20T23:34:03.814Z,53.77
2022-09-20T23:36:33.254Z,53.51
2022-09-20T23:39:00.253Z,54.38
2022-09-20T23:41:28.612Z,54.87
2022-09-20T23:43:55.572Z,54.33
2022-09-20T23:46:24.633Z,54.67
2022-09-20T23:48:51.755Z,54.64
2022-09-20T23:51:22.617Z,54.73
2022-09-20T23:53:51.052Z,54.33
2022-09-20T23:56:18.584Z,54.87
2022-09-20T23:58:45.934Z,55.00
